Time;durP1;ratioP1;P1;durP2;ratioP2;P2;SDS_P1;SDS_P2;PMS_P1;PMS_P2;Temp;Humidity;BMP_temperature;BMP_pressure;BME280_temperature;BME280_humidity;BME280_pressure;Samples;Min_cycle;Max_cycle;Signal;HPM_P1;HPM_P2
2023/03/15 00:03:06;;;;;;;5.40;3.58;;;14.20;86.60;;;;;;10791037;33;20012;-74
2023/03/15 00:09:08;;;;;;;3.20;2.60;;;14.20;86.70;;;;;;10779113;33;20056;-74
2023/03/15 00:15:13;;;;;;;2.90;2.55;;;14.20;86.80;;;;;;10790629;33;20066;-73
2023/03/15 00:21:15;;;;;;;3.62;2.78;;;14.20;86.70;;;;;;10778761;33;20054;-76
2023/03/15 00:27:17;;;;;;;3.97;2.87;;;14.00;86.80;;;;;;10791389;33;20466;-76
2023/03/15 00:33:20;;;;;;;4.10;3.30;;;14.10;86.70;;;;;;10826144;27;20461;-76
2023/03/15 00:39:24;;;;;;;3.10;2.17;;;14.00;86.50;;;;;;10815961;33;20444;-76
2023/03/15 00:45:27;;;;;;;4.40;2.72;;;13.80;86.70;;;;;;10828288;33;20019;-76
2023/03/15 00:51:29;;;;;;;5.03;3.05;;;13.70;86.90;;;;;;10828143;33;20051;-76
2023/03/15 00:57:34;;;;;;;9.82;7.07;;;13.60;87.00;;;;;;10828019;33;20027;-75
2023/03/15 01:03:36;;;;;;;8.50;5.80;;;13.30;86.70;;;;;;10828554;33;20415;-75
2023/03/15 01:09:38;;;;;;;5.65;3.70;;;13.00;86.40;;;;;;10814276;33;20027;-76
2023/03/15 01:15:46;;;;;;;4.78;3.42;;;12.80;86.70;;;;;;10825829;33;20059;-76
2023/03/15 01:21:48;;;;;;;6.20;4.30;;;12.80;86.90;;;;;;10825818;33;20061;-75
2023/03/15 01:27:52;;;;;;;5.87;3.83;;;12.90;86.80;;;;;;10814686;32;20012;-76
2023/03/15 01:33:56;;;;;;;6.43;4.37;;;12.70;86.40;;;;;;10826559;33;20435;-75
2023/03/15 01:39:58;;;;;;;6.22;4.50;;;12.70;86.40;;;;;;10826769;33;20046;-76
2023/03/15 01:46:18;;;;;;;5.45;3.90;;;12.60;86.50;;;;;;10813572;33;20029;-76
2023/03/15 01:52:25;;;;;;;7.57;4.72;;;12.50;86.40;;;;;;10825780;33;20028;-76
2023/03/15 01:58:28;;;;;;;8.00;5.10;;;12.50;86.50;;;;;;10824694;33;20027;-76
2023/03/15 02:04:46;;;;;;;5.43;4.05;;;12.50;86.40;;;;;;10812805;33;20023;-76
2023/03/15 02:10:52;;;;;;;6.62;4.70;;;12.50;86.30;;;;;;10826050;33;20350;-74
2023/03/15 02:16:56;;;;;;;4.80;3.05;;;12.50;86.20;;;;;;10811487;32;20062;-74
2023/03/15 02:23:05;;;;;;;8.60;6.32;;;12.40;86.20;;;;;;10813713;33;20047;-75
2023/03/15 02:29:07;;;;;;;5.62;4.28;;;12.40;86.00;;;;;;10821363;33;20055;-75
2023/03/15 02:35:09;;;;;;;5.28;4.28;;;12.30;86.10;;;;;;10810806;33;20115;-75
2023/03/15 02:41:13;;;;;;;5.03;3.47;;;12.20;85.90;;;;;;10824180;33;20021;-74
2023/03/15 02:47:25;;;;;;;4.85;3.83;;;12.20;85.90;;;;;;10821841;33;20046;-74
2023/03/15 02:53:32;;;;;;;9.65;6.50;;;12.20;86.10;;;;;;10824771;33;20020;-74
2023/03/15 02:59:34;;;;;;;3.40;3.00;;;12.30;86.10;;;;;;10824710;33;20050;-74
2023/03/15 03:06:08;;;;;;;4.87;3.37;;;12.30;86.10;;;;;;10824467;33;20093;-74
2023/03/15 03:12:10;;;;;;;6.82;3.45;;;12.30;86.10;;;;;;10825512;33;20385;-75
2023/03/15 03:18:13;;;;;;;4.03;2.47;;;12.20;86.20;;;;;;10810491;33;20032;-76
2023/03/15 03:24:15;;;;;;;5.62;3.62;;;12.30;86.20;;;;;;10824167;33;20021;-76
2023/03/15 03:30:17;;;;;;;5.05;3.58;;;12.40;86.20;;;;;;10824629;33;20024;-76
2023/03/15 03:36:20;;;;;;;4.45;2.78;;;12.40;86.10;;;;;;10823703;33;20070;-76
2023/03/15 03:42:22;;;;;;;3.55;2.50;;;12.30;86.30;;;;;;10824311;33;20412;-76
2023/03/15 03:48:25;;;;;;;4.10;2.75;;;12.40;86.30;;;;;;10823746;33;20050;-75
2023/03/15 03:54:27;;;;;;;3.37;2.37;;;12.30;86.40;;;;;;10826847;32;20046;-76
2023/03/15 04:00:29;;;;;;;2.22;2.03;;;12.30;86.40;;;;;;10829580;33;20330;-76
2023/03/15 04:06:31;;;;;;;5.35;3.28;;;12.40;86.30;;;;;;10804312;33;20420;-76
2023/03/15 04:12:34;;;;;;;3.53;2.60;;;12.30;86.40;;;;;;10817887;33;20047;-76
2023/03/15 04:18:36;;;;;;;9.07;2.67;;;12.40;86.20;;;;;;10830295;33;20012;-75
2023/03/15 04:24:38;;;;;;;5.10;3.28;;;12.30;86.20;;;;;;10828879;33;20020;-75
2023/03/15 04:30:44;;;;;;;3.80;2.90;;;12.20;86.20;;;;;;10827280;33;20398;-76
2023/03/15 04:36:46;;;;;;;5.97;3.42;;;12.20;86.30;;;;;;10815421;33;20032;-75
2023/03/15 04:42:56;;;;;;;5.05;3.78;;;12.20;86.30;;;;;;10828397;33;20020;-76
2023/03/15 04:48:59;;;;;;;6.10;2.67;;;12.20;86.30;;;;;;10828239;33;20066;-76
2023/03/15 04:55:02;;;;;;;2.85;2.33;;;12.30;86.00;;;;;;10828047;33;20329;-76
2023/03/15 05:01:04;;;;;;;3.30;2.83;;;12.20;86.20;;;;;;10815337;33;20016;-76
2023/03/15 05:07:07;;;;;;;3.53;2.42;;;12.20;86.10;;;;;;10827097;32;20016;-76
2023/03/15 05:13:11;;;;;;;5.00;2.95;;;12.20;86.10;;;;;;10827532;33;20482;-75
2023/03/15 05:19:13;;;;;;;4.57;3.22;;;12.20;86.30;;;;;;10828629;33;20050;-75
2023/03/15 05:25:15;;;;;;;7.50;3.17;;;12.20;86.30;;;;;;10801414;33;20036;-75
2023/03/15 05:31:19;;;;;;;4.47;2.53;;;12.30;86.20;;;;;;10826874;33;20097;-76
2023/03/15 05:37:23;;;;;;;6.22;3.67;;;12.20;86.30;;;;;;10827323;33;20027;-75
2023/03/15 05:43:26;;;;;;;3.62;2.40;;;12.20;86.40;;;;;;10814318;33;20020;-75
2023/03/15 05:49:28;;;;;;;5.70;4.40;;;12.20;86.40;;;;;;10827163;33;20337;-74
2023/03/15 05:55:30;;;;;;;4.90;3.20;;;12.30;86.30;;;;;;10826183;33;20020;-74
2023/03/15 06:01:33;;;;;;;3.42;2.25;;;12.50;86.00;;;;;;10813692;33;20027;-74
2023/03/15 06:07:36;;;;;;;4.75;2.50;;;12.40;86.00;;;;;;10825947;33;20024;-74
2023/03/15 06:13:39;;;;;;;4.60;3.30;;;12.30;86.20;;;;;;10827016;33;20032;-74
2023/03/15 06:19:42;;;;;;;3.78;3.33;;;12.70;86.40;;;;;;10821937;32;20024;-74
2023/03/15 06:25:45;;;;;;;6.37;4.15;;;13.00;85.80;;;;;;10824599;33;20027;-74
2023/03/15 06:31:51;;;;;;;5.40;3.30;;;13.30;85.50;;;;;;10824963;33;20020;-74
2023/03/15 06:37:54;;;;;;;4.07;2.67;;;13.50;85.20;;;;;;10823334;33;20431;-75
2023/03/15 06:43:56;;;;;;;5.93;2.55;;;13.40;85.30;;;;;;10826206;33;20043;-75
2023/03/15 06:49:58;;;;;;;5.20;3.60;;;13.60;85.70;;;;;;10823702;33;20066;-75
2023/03/15 06:56:01;;;;;;;5.07;3.17;;;13.80;85.40;;;;;;10824031;33;20028;-75
2023/03/15 07:02:03;;;;;;;3.47;2.85;;;13.70;85.10;;;;;;10807796;33;20032;-75
2023/03/15 07:08:06;;;;;;;5.53;2.92;;;13.30;85.70;;;;;;10798522;32;20076;-76
2023/03/15 07:14:08;;;;;;;3.92;2.45;;;13.30;86.20;;;;;;10826397;32;20050;-76
2023/03/15 07:20:11;;;;;;;5.40;3.00;;;13.20;86.20;;;;;;10775212;32;20067;-75
2023/03/15 07:26:13;;;;;;;3.80;2.28;;;13.30;86.50;;;;;;10787645;33;20039;-75
2023/03/15 07:32:15;;;;;;;3.62;2.90;;;13.40;86.20;;;;;;10793789;33;20440;-74
2023/03/15 07:38:18;;;;;;;4.78;2.90;;;13.50;86.20;;;;;;10780425;33;20028;-74
2023/03/15 07:44:21;;;;;;;7.12;4.82;;;13.60;86.10;;;;;;10778572;33;20033;-74
2023/03/15 07:50:23;;;;;;;4.87;3.25;;;13.70;86.30;;;;;;10793200;33;20047;-74
2023/03/15 07:56:26;;;;;;;13.48;5.20;;;13.80;86.00;;;;;;10768182;32;20432;-75
2023/03/15 08:02:28;;;;;;;9.30;6.95;;;13.80;86.30;;;;;;10789439;33;20055;-74
2023/03/15 08:08:30;;;;;;;12.43;8.00;;;14.20;86.30;;;;;;10779275;32;20059;-74
2023/03/15 08:14:32;;;;;;;11.57;8.85;;;14.30;86.30;;;;;;10776225;32;20076;-74
2023/03/15 08:20:35;;;;;;;10.85;6.70;;;13.80;85.20;;;;;;10792418;33;20047;-74
2023/03/15 08:26:37;;;;;;;5.60;3.47;;;13.40;84.40;;;;;;10789578;33;20369;-74
2023/03/15 08:32:41;;;;;;;7.70;2.53;;;13.10;83.70;;;;;;10822575;27;20444;-74
2023/03/15 08:38:43;;;;;;;5.03;1.90;;;12.90;82.00;;;;;;10823825;32;20024;-73
